Time;durP1;ratioP1;P1;durP2;ratioP2;P2;SDS_P1;SDS_P2;PMS_P1;PMS_P2;Temp;Humidity;BMP_temperature;BMP_pressure;BME280_temperature;BME280_humidity;BME280_pressure;Samples;Min_cycle;Max_cycle;Signal;HPM_P1;HPM_P2
2023/08/14 00:00:51;;;;;;;7.25;5.00;;;;;;;19.88;73.70;95031.41;5089594;28;20190;-43
2023/08/14 00:03:18;;;;;;;6.03;4.65;;;;;;;19.86;74.04;95037.75;5088531;28;20197;-42
2023/08/14 00:05:45;;;;;;;4.95;4.20;;;;;;;19.86;74.42;95035.16;5090506;28;20228;-42
2023/08/14 00:08:11;;;;;;;5.40;4.53;;;;;;;19.76;74.64;95033.69;5089959;28;20249;-42
2023/08/14 00:10:40;;;;;;;5.63;5.13;;;;;;;19.74;75.19;95040.06;5090058;28;20201;-43
2023/08/14 00:13:07;;;;;;;6.00;5.30;;;;;;;19.72;75.18;95036.84;5089301;28;20280;-45
2023/08/14 00:15:34;;;;;;;8.43;5.90;;;;;;;19.73;75.92;95039.25;5089616;28;20193;-44
2023/08/14 00:18:00;;;;;;;10.43;5.70;;;;;;;19.66;76.10;95042.78;5089000;28;20665;-43
2023/08/14 00:20:27;;;;;;;6.85;5.78;;;;;;;19.58;76.46;95043.66;5089620;28;20204;-45
2023/08/14 00:22:54;;;;;;;6.77;5.40;;;;;;;19.40;76.54;95020.75;5089561;28;20215;-43
2023/08/14 00:25:21;;;;;;;9.63;5.80;;;;;;;19.51;76.75;95051.38;5088984;28;20287;-44
2023/08/14 00:27:49;;;;;;;7.60;5.70;;;;;;;19.50;76.90;95054.16;5089478;28;20221;-43
2023/08/14 00:30:15;;;;;;;6.90;6.20;;;;;;;19.47;77.19;95047.56;5088807;28;20314;-42
2023/08/14 00:32:42;;;;;;;6.13;5.32;;;;;;;19.46;77.35;95050.31;5089376;28;20193;-43
2023/08/14 00:35:09;;;;;;;6.63;6.03;;;;;;;19.43;77.75;95048.91;5089319;28;20190;-41
2023/08/14 00:37:43;;;;;;;10.00;5.90;;;;;;;19.38;77.96;95046.03;5089458;28;20190;-43
2023/08/14 00:40:11;;;;;;;6.43;5.82;;;;;;;19.37;77.90;95052.22;5088831;28;20189;-44
2023/08/14 00:42:39;;;;;;;6.00;5.30;;;;;;;19.36;78.24;95049.81;5089184;28;20186;-45
2023/08/14 00:45:09;;;;;;;7.47;5.33;;;;;;;19.35;78.20;95053.41;5089206;28;20220;-46
2023/08/14 00:47:36;;;;;;;7.20;6.07;;;;;;;19.33;78.39;95053.56;5089124;28;20657;-43
2023/08/14 00:50:04;;;;;;;8.40;5.67;;;;;;;19.26;78.38;95050.91;5089135;28;20216;-45
2023/08/14 00:52:31;;;;;;;6.23;5.50;;;;;;;19.24;78.45;95049.47;5089135;28;20657;-43
2023/08/14 00:55:01;;;;;;;6.83;5.40;;;;;;;19.24;78.47;95054.66;5088750;28;20185;-44
2023/08/14 00:57:29;;;;;;;5.90;5.07;;;;;;;19.18;78.75;95050.22;5089098;28;20255;-43
2023/08/14 00:59:56;;;;;;;7.23;5.53;;;;;;;19.03;78.74;95022.50;5088859;28;20226;-43
2023/08/14 01:02:26;;;;;;;13.20;5.73;;;;;;;19.16;78.61;95060.75;5089062;28;20186;-43
2023/08/14 01:04:52;;;;;;;7.27;5.83;;;;;;;19.16;78.64;95054.78;5088531;28;20190;-43
2023/08/14 01:07:19;;;;;;;6.77;5.40;;;;;;;19.03;78.86;95039.88;5088769;28;20210;-44
2023/08/14 01:09:47;;;;;;;6.30;5.60;;;;;;;19.11;78.89;95051.94;5089278;28;20207;-45
2023/08/14 01:12:26;;;;;;;6.00;5.10;;;;;;;19.07;79.30;95051.47;5088923;28;20189;-44
2023/08/14 01:14:59;;;;;;;5.43;4.87;;;;;;;19.04;79.26;95046.66;5090845;28;20254;-45
2023/08/14 01:17:30;;;;;;;7.83;5.10;;;;;;;19.02;79.17;95048.63;5092661;28;20238;-43
2023/08/14 01:19:58;;;;;;;5.67;5.17;;;;;;;19.00;79.09;95054.00;5092038;28;20186;-42
2023/08/14 01:22:40;;;;;;;6.80;5.17;;;;;;;18.97;79.57;95048.38;5092384;28;20198;-44
2023/08/14 01:25:31;;;;;;;6.47;5.47;;;;;;;18.94;79.87;95038.34;5092336;28;20702;-43
2023/08/14 01:27:59;;;;;;;7.00;5.00;;;;;;;18.90;80.14;95042.28;5092375;28;20275;-43
2023/08/14 01:30:26;;;;;;;5.40;4.83;;;;;;;18.86;80.25;95036.66;5092383;28;20245;-43
2023/08/14 01:32:53;;;;;;;5.67;5.17;;;;;;;18.70;80.71;95016.16;5092617;28;20185;-44
2023/08/14 01:35:22;;;;;;;5.70;5.20;;;;;;;18.76;81.04;95028.38;5091988;28;20202;-43
2023/08/14 01:37:56;;;;;;;5.43;4.93;;;;;;;18.76;81.16;95030.97;5092370;28;20193;-43
2023/08/14 01:40:33;;;;;;;5.70;5.20;;;;;;;18.74;81.33;95038.94;5091843;28;20197;-43
2023/08/14 01:43:05;;;;;;;5.10;4.70;;;;;;;18.72;81.42;95029.72;5092063;28;20667;-43
2023/08/14 01:45:33;;;;;;;6.23;5.63;;;;;;;18.56;81.53;95010.72;5091779;28;20699;-42
2023/08/14 01:48:01;;;;;;;5.00;4.53;;;;;;;18.72;80.97;95030.50;5092019;28;20838;-43
2023/08/14 01:50:30;;;;;;;6.10;5.23;;;;;;;18.59;81.86;95011.38;5091878;28;20259;-43
2023/08/14 01:52:58;;;;;;;5.80;4.80;;;;;;;18.70;81.80;95031.69;5091933;28;20213;-43
2023/08/14 01:55:25;;;;;;;5.10;4.70;;;;;;;18.66;82.10;95023.44;5091602;28;20198;-44
2023/08/14 01:57:54;;;;;;;7.67;5.37;;;;;;;18.55;82.13;95010.91;5091597;28;20201;-43
2023/08/14 02:00:21;;;;;;;5.50;5.00;;;;;;;18.64;82.05;95019.41;5091770;28;20952;-43
2023/08/14 02:02:48;;;;;;;6.70;5.07;;;;;;;18.60;82.54;95024.13;5092292;28;20182;-44
2023/08/14 02:05:15;;;;;;;6.43;5.47;;;;;;;18.64;82.46;95024.59;5091492;28;20618;-42
2023/08/14 02:07:42;;;;;;;5.37;4.83;;;;;;;18.63;82.32;95021.19;5091716;28;20251;-43
2023/08/14 02:10:09;;;;;;;6.43;5.23;;;;;;;18.60;82.08;95023.34;5091392;28;20190;-43
2023/08/14 02:12:36;;;;;;;5.63;5.03;;;;;;;18.54;82.17;95012.72;5091516;28;20189;-43
2023/08/14 02:15:05;;;;;;;8.13;5.93;;;;;;;18.62;82.00;95029.97;5091894;28;20294;-43
2023/08/14 02:17:32;;;;;;;5.60;5.07;;;;;;;18.58;81.67;95020.13;5091777;28;20193;-44
2023/08/14 02:19:59;;;;;;;6.50;4.67;;;;;;;18.54;81.71;95023.06;5092267;28;20190;-42
2023/08/14 02:22:25;;;;;;;7.03;5.50;;;;;;;18.51;81.85;95032.97;5091423;28;20178;-43
2023/08/14 02:24:53;;;;;;;6.17;4.90;;;;;;;18.49;81.86;95022.00;5091194;28;20186;-42
2023/08/14 02:27:20;;;;;;;5.90;5.10;;;;;;;18.47;81.86;95023.94;5090281;28;20271;-42
2023/08/14 02:29:47;;;;;;;6.33;5.37;;;;;;;18.42;81.78;95013.34;5091433;28;20285;-44
2023/08/14 02:32:15;;;;;;;5.47;4.90;;;;;;;18.41;81.74;95022.88;5090549;28;20658;-43
2023/08/14 02:34:46;;;;;;;9.67;4.93;;;;;;;18.38;81.82;95025.03;5091337;28;20208;-43
2023/08/14 02:37:14;;;;;;;5.73;5.23;;;;;;;18.35;81.97;95033.13;5090993;28;20291;-43
2023/08/14 02:39:41;;;;;;;5.30;4.43;;;;;;;18.35;81.87;95031.38;5091107;28;20203;-41
2023/08/14 02:42:09;;;;;;;6.17;5.10;;;;;;;18.34;81.91;95034.94;5090577;28;20178;-41
2023/08/14 02:44:36;;;;;;;6.03;5.20;;;;;;;18.31;82.38;95032.72;5090790;28;20185;-44
2023/08/14 02:47:04;;;;;;;7.80;5.40;;;;;;;18.28;82.38;95039.03;5090695;28;20652;-42
2023/08/14 02:49:32;;;;;;;6.70;4.60;;;;;;;18.26;82.43;95043.59;5090523;28;20232;-41
2023/08/14 02:51:59;;;;;;;7.07;4.57;;;;;;;18.26;82.48;95047.94;5090615;28;20186;-41
2023/08/14 02:54:26;;;;;;;9.33;5.50;;;;;;;18.27;82.00;95045.19;5090907;28;20603;-41
2023/08/14 02:56:52;;;;;;;9.23;5.10;;;;;;;18.27;81.80;95049.56;5090966;28;20194;-42
2023/08/14 02:59:19;;;;;;;6.17;4.50;;;;;;;18.24;81.49;95042.16;5090880;28;20178;-42
2023/08/14 03:01:46;;;;;;;8.20;4.83;;;;;;;18.19;81.41;95053.03;5090738;28;20246;-43
2023/08/14 03:04:16;;;;;;;6.27;5.03;;;;;;;18.19;81.50;95049.66;5090330;28;20201;-42
2023/08/14 03:06:44;;;;;;;5.67;5.17;;;;;;;18.17;81.61;95052.41;5090537;28;20288;-42
2023/08/14 03:09:11;;;;;;;8.90;5.20;;;;;;;18.15;81.50;95054.38;5090325;28;20336;-40
2023/08/14 03:11:38;;;;;;;7.53;5.17;;;;;;;18.16;81.80;95057.75;5090596;28;20232;-44
2023/08/14 03:14:05;;;;;;;6.27;5.67;;;;;;;18.07;81.87;95059.59;5090300;28;20642;-43
2023/08/14 03:16:32;;;;;;;6.57;5.10;;;;;;;17.98;81.67;95045.94;5090479;28;20219;-42
2023/08/14 03:18:59;;;;;;;6.03;4.90;;;;;;;17.97;81.56;95054.69;5090367;28;20185;-44
2023/08/14 03:21:25;;;;;;;5.93;5.37;;;;;;;17.91;81.78;95057.16;5090210;28;20186;-45
2023/08/14 03:23:53;;;;;;;8.03;5.03;;;;;;;17.90;81.61;95063.31;5089917;28;20201;-42
2023/08/14 03:26:20;;;;;;;8.13;5.20;;;;;;;17.86;81.70;95056.88;5090326;28;20190;-42
2023/08/14 03:28:47;;;;;;;7.97;5.47;;;;;;;17.84;81.73;95056.25;5089711;28;20754;-41
2023/08/14 03:31:14;;;;;;;7.30;5.20;;;;;;;17.80;81.82;95055.78;5089854;28;20225;-41
2023/08/14 03:33:41;;;;;;;6.60;5.63;;;;;;;17.80;81.63;95059.19;5089991;28;20275;-43
2023/08/14 03:36:07;;;;;;;5.53;4.60;;;;;;;17.79;81.84;95062.75;5090189;28;20197;-43
2023/08/14 03:38:34;;;;;;;6.17;5.20;;;;;;;17.83;81.68;95055.41;5089867;28;20196;-44
2023/08/14 03:41:03;;;;;;;7.43;5.27;;;;;;;17.74;81.75;95057.25;5089605;28;20208;-44
2023/08/14 03:43:30;;;;;;;6.03;4.63;;;;;;;17.73;81.69;95060.00;5090084;28;20185;-44
2023/08/14 03:45:57;;;;;;;5.40;4.70;;;;;;;17.74;81.56;95057.25;5089680;28;20196;-44
2023/08/14 03:48:24;;;;;;;6.47;4.83;;;;;;;17.68;81.58;95049.38;5089518;28;20282;-43
2023/08/14 03:50:51;;;;;;;5.47;4.87;;;;;;;17.52;81.74;95019.25;5089742;28;20190;-44
2023/08/14 03:53:18;;;;;;;8.73;4.80;;;;;;;17.68;81.46;95046.78;5089701;28;20665;-42
2023/08/14 03:55:45;;;;;;;5.70;5.20;;;;;;;17.77;81.49;95056.13;5089643;28;20644;-43
2023/08/14 03:58:13;;;;;;;8.87;4.90;;;;;;;17.85;81.09;95050.09;5089815;28;20215;-43
2023/08/14 04:00:40;;;;;;;5.73;5.13;;;;;;;17.92;81.04;95053.56;5089593;28;20190;-43
2023/08/14 04:03:07;;;;;;;6.03;5.43;;;;;;;17.89;81.13;95054.75;5089679;28;20615;-42
2023/08/14 04:05:38;;;;;;;6.63;5.33;;;;;;;17.91;81.20;95054.56;5089015;28;20196;-42
2023/08/14 04:08:05;;;;;;;5.37;4.87;;;;;;;17.99;80.79;95054.50;5089303;28;20558;-43
2023/08/14 04:10:32;;;;;;;10.03;5.93;;;;;;;18.04;80.63;95047.81;5089218;28;20190;-42
2023/08/14 04:12:59;;;;;;;9.33;5.40;;;;;;;18.05;80.79;95054.63;5089773;28;20205;-44
2023/08/14 04:15:28;;;;;;;6.77;5.50;;;;;;;18.07;80.75;95058.81;5089805;28;20296;-44
2023/08/14 04:17:54;;;;;;;7.47;5.00;;;;;;;18.12;80.62;95059.88;5089470;28;20193;-43
2023/08/14 04:20:21;;;;;;;9.90;5.47;;;;;;;18.16;80.66;95057.75;5089436;28;20197;-42
2023/08/14 04:22:48;;;;;;;11.63;6.27;;;;;;;18.17;80.45;95067.13;5089649;28;20190;-43
2023/08/14 04:25:16;;;;;;;8.03;5.23;;;;;;;18.17;80.74;95067.13;5089513;28;20677;-43
2023/08/14 04:27:43;;;;;;;9.17;5.70;;;;;;;18.19;80.93;95078.94;5089123;28;20193;-45
2023/08/14 04:30:11;;;;;;;7.00;5.20;;;;;;;18.22;80.91;95080.34;5089319;28;20229;-43
2023/08/14 04:32:39;;;;;;;6.07;5.47;;;;;;;18.26;80.78;95076.44;5089462;28;20185;-43
2023/08/14 04:35:08;;;;;;;7.00;5.80;;;;;;;18.34;80.57;95075.56;5089565;28;20190;-43
2023/08/14 04:37:35;;;;;;;6.13;5.53;;;;;;;18.37;80.34;95077.81;5088868;28;20190;-44
2023/08/14 04:40:01;;;;;;;8.63;6.37;;;;;;;18.41;80.13;95074.69;5089576;28;20190;-43
2023/08/14 04:42:28;;;;;;;6.00;5.40;;;;;;;18.50;79.53;95083.19;5088781;28;20186;-43
2023/08/14 04:44:56;;;;;;;7.07;5.63;;;;;;;18.68;79.02;95081.03;5089187;28;20190;-42
2023/08/14 04:47:23;;;;;;;7.37;5.37;;;;;;;18.93;78.68;95084.22;5089027;28;20189;-44
2023/08/14 04:49:52;;;;;;;10.90;5.73;;;;;;;19.27;77.71;95090.63;5091927;28;20225;-43
2023/08/14 04:52:20;;;;;;;6.47;5.00;;;;;;;19.63;75.79;95082.06;5093284;28;20186;-45
2023/08/14 04:54:47;;;;;;;6.97;5.40;;;;;;;20.02;74.34;95082.44;5093244;28;20185;-45
2023/08/14 04:57:14;;;;;;;7.43;4.90;;;;;;;20.42;72.17;95082.78;5093289;28;20185;-43
2023/08/14 04:59:40;;;;;;;7.60;4.95;;;;;;;20.83;70.57;95083.88;5093228;28;20188;-45
2023/08/14 05:02:07;;;;;;;9.60;5.03;;;;;;;21.29;67.14;95084.09;5093090;28;20642;-43
2023/08/14 05:04:34;;;;;;;8.20;5.10;;;;;;;21.65;66.41;95090.84;5092973;28;20190;-44
2023/08/14 05:07:02;;;;;;;6.68;5.97;;;;;;;21.89;64.22;95089.47;5092992;28;20245;-45
2023/08/14 05:09:29;;;;;;;9.85;5.75;;;;;;;21.99;63.41;95087.31;5092408;28;20315;-43
2023/08/14 05:11:57;;;;;;;9.23;5.18;;;;;;;22.14;62.67;95098.38;5093068;28;20246;-43
2023/08/14 05:14:24;;;;;;;11.30;5.63;;;;;;;22.28;62.34;95094.00;5092960;28;20182;-42
2023/08/14 05:16:51;;;;;;;5.13;4.60;;;;;;;22.57;61.67;95100.56;5093236;28;20181;-44
2023/08/14 05:19:18;;;;;;;9.27;4.65;;;;;;;22.72;60.24;95085.53;5092593;28;20193;-44
2023/08/14 05:21:45;;;;;;;8.55;4.50;;;;;;;22.90;58.91;95056.22;5092407;28;20189;-44
2023/08/14 05:24:15;;;;;;;5.90;5.22;;;;;;;23.52;57.99;95091.31;5092701;28;20276;-42
2023/08/14 05:26:42;;;;;;;5.63;5.10;;;;;;;23.92;57.17;95093.75;5092581;28;20197;-45
2023/08/14 05:29:09;;;;;;;6.63;4.57;;;;;;;24.33;55.99;95091.66;5092747;28;20723;-45
2023/08/14 05:31:35;;;;;;;8.60;5.10;;;;;;;24.59;54.16;95086.22;5092364;28;20224;-44
2023/08/14 05:34:02;;;;;;;10.20;5.55;;;;;;;24.83;54.08;95091.63;5092645;28;20666;-45
2023/08/14 05:36:29;;;;;;;11.25;5.35;;;;;;;24.92;53.88;95093.78;5091995;28;20197;-42
2023/08/14 05:38:56;;;;;;;5.15;4.65;;;;;;;24.92;52.22;95080.69;5092542;28;20213;-42
2023/08/14 05:41:24;;;;;;;6.00;4.80;;;;;;;25.41;51.11;95096.47;5091897;28;20197;-43
2023/08/14 05:43:51;;;;;;;7.57;4.72;;;;;;;25.79;50.16;95093.59;5092396;28;20189;-45
2023/08/14 05:46:19;;;;;;;6.30;5.00;;;;;;;26.01;49.66;95099.16;5091972;28;20204;-46
2023/08/14 05:48:45;;;;;;;9.70;4.68;;;;;;;25.95;50.05;95098.22;5092013;28;20213;-45
2023/08/14 05:51:12;;;;;;;4.88;4.40;;;;;;;26.12;50.12;95106.25;5091884;28;20220;-45
2023/08/14 05:53:39;;;;;;;5.68;4.32;;;;;;;26.45;49.23;95111.00;5092072;28;20193;-44
2023/08/14 05:56:06;;;;;;;6.25;4.45;;;;;;;26.67;48.32;95110.44;5091871;28;20320;-45
2023/08/14 05:58:34;;;;;;;4.07;3.72;;;;;;;26.88;46.79;95106.47;5092140;28;20193;-44
2023/08/14 06:01:01;;;;;;;7.63;4.57;;;;;;;27.08;47.03;95108.75;5090683;28;20565;-43
2023/08/14 06:03:28;;;;;;;6.35;4.13;;;;;;;27.36;46.43;95108.03;5091879;28;20189;-44
2023/08/14 06:05:54;;;;;;;10.85;4.43;;;;;;;27.59;46.53;95099.25;5091428;28;20197;-44
2023/08/14 06:08:21;;;;;;;5.85;4.15;;;;;;;27.77;46.07;95106.22;5091368;28;20644;-44
2023/08/14 06:10:48;;;;;;;9.18;4.20;;;;;;;28.08;45.58;95105.72;5091458;28;20198;-45
2023/08/14 06:13:15;;;;;;;6.68;4.40;;;;;;;28.08;45.19;95099.69;5091579;28;20182;-44
2023/08/14 06:15:43;;;;;;;4.43;3.72;;;;;;;28.11;45.88;95091.28;5091590;28;20193;-45
2023/08/14 06:18:10;;;;;;;11.85;5.22;;;;;;;28.34;45.14;95093.78;5091319;28;20775;-44
2023/08/14 06:20:36;;;;;;;10.80;4.75;;;;;;;28.48;45.10;95096.94;5091337;28;20262;-46
2023/08/14 06:23:04;;;;;;;5.00;3.70;;;;;;;28.67;44.15;95097.47;5091234;28;20663;-43
2023/08/14 06:25:32;;;;;;;4.57;3.92;;;;;;;28.95;43.32;95093.94;5091329;28;20628;-44
2023/08/14 06:27:59;;;;;;;8.48;4.22;;;;;;;29.13;43.27;95093.66;5091189;28;20208;-43
2023/08/14 06:30:26;;;;;;;4.05;3.75;;;;;;;29.36;42.72;95092.66;5091136;28;20237;-44
2023/08/14 06:32:54;;;;;;;5.57;4.20;;;;;;;29.55;42.95;95095.78;5091178;28;20667;-45
2023/08/14 06:35:21;;;;;;;4.57;4.10;;;;;;;29.78;42.58;95091.28;5091058;28;20197;-43
2023/08/14 06:37:48;;;;;;;5.70;4.63;;;;;;;30.06;42.12;95098.16;5091250;28;20247;-44
2023/08/14 06:40:14;;;;;;;6.00;3.97;;;;;;;29.95;40.93;95084.06;5091419;28;20189;-44
2023/08/14 06:42:41;;;;;;;5.88;3.80;;;;;;;30.00;41.05;95092.81;5091263;28;20182;-45
2023/08/14 06:45:09;;;;;;;6.50;4.30;;;;;;;30.08;40.96;95094.22;5090792;28;20571;-44
2023/08/14 06:47:44;;;;;;;7.82;4.13;;;;;;;30.23;40.63;95104.16;5090815;28;20206;-43
2023/08/14 06:50:12;;;;;;;4.50;3.42;;;;;;;30.40;39.86;95099.56;5090847;28;20307;-42
2023/08/14 06:52:39;;;;;;;5.15;3.15;;;;;;;30.52;39.28;95104.63;5091280;28;20185;-44
2023/08/14 06:55:07;;;;;;;4.38;3.15;;;;;;;30.79;38.78;95109.09;5090982;28;20182;-43
2023/08/14 06:57:34;;;;;;;5.30;3.58;;;;;;;30.95;38.89;95111.56;5090824;28;20205;-44
2023/08/14 07:00:12;;;;;;;3.35;3.05;;;;;;;30.78;38.53;95110.13;5090664;28;20193;-44
2023/08/14 07:02:39;;;;;;;4.78;3.75;;;;;;;30.61;38.06;95112.88;5090528;28;20213;-45
2023/08/14 07:05:06;;;;;;;5.88;3.42;;;;;;;30.60;38.29;95101.53;5090724;28;20190;-45
2023/08/14 07:07:34;;;;;;;4.25;3.40;;;;;;;30.84;37.71;95112.56;5091187;28;20189;-45
2023/08/14 07:10:01;;;;;;;6.50;3.72;;;;;;;30.82;37.42;95113.88;5090897;28;20217;-45
2023/08/14 07:12:28;;;;;;;3.95;3.28;;;;;;;30.68;37.83;95108.19;5090708;28;20181;-42
2023/08/14 07:14:55;;;;;;;6.53;3.50;;;;;;;30.72;37.81;95115.38;5091360;28;20181;-44
2023/08/14 07:17:22;;;;;;;7.63;3.70;;;;;;;30.88;37.57;95118.94;5091196;28;20181;-44
2023/08/14 07:19:48;;;;;;;9.63;4.53;;;;;;;31.09;36.84;95119.84;5090461;28;20212;-46
2023/08/14 07:22:15;;;;;;;6.55;4.80;;;;;;;31.12;37.02;95119.31;5090818;28;20204;-45
2023/08/14 07:24:43;;;;;;;4.75;3.67;;;;;;;31.33;36.78;95114.97;5089973;28;20189;-45
2023/08/14 07:27:10;;;;;;;3.60;3.30;;;;;;;31.42;36.19;95118.72;5090796;28;20209;-45
2023/08/14 07:29:37;;;;;;;6.72;3.55;;;;;;;31.28;36.55;95109.66;5089885;28;20214;-44
2023/08/14 07:32:04;;;;;;;5.75;2.97;;;;;;;31.07;36.67;95114.03;5090036;28;20225;-44
2023/08/14 07:34:31;;;;;;;4.22;3.40;;;;;;;30.98;36.42;95113.72;5090252;28;20661;-43
2023/08/14 07:36:58;;;;;;;3.47;3.13;;;;;;;30.95;36.48;95113.41;5089991;28;20280;-43
2023/08/14 07:39:24;;;;;;;7.20;3.25;;;;;;;31.18;36.17;95115.69;5090149;28;20197;-45
2023/08/14 07:41:53;;;;;;;4.43;3.22;;;;;;;31.40;35.48;95112.91;5090031;28;20182;-44
2023/08/14 07:44:19;;;;;;;4.60;3.35;;;;;;;31.29;35.22;95108.59;5090218;28;20189;-43
2023/08/14 07:46:46;;;;;;;5.68;2.85;;;;;;;31.39;35.28;95105.22;5089810;28;20190;-43
2023/08/14 07:49:13;;;;;;;3.22;2.75;;;;;;;31.59;34.31;95109.78;5089963;28;20688;-45
2023/08/14 07:51:40;;;;;;;3.17;2.80;;;;;;;31.20;34.85;95054.63;5089390;28;20201;-43
2023/08/14 07:54:06;;;;;;;4.85;3.20;;;;;;;31.47;34.78;95110.78;5089870;28;20190;-44
2023/08/14 07:56:33;;;;;;;3.13;2.55;;;;;;;31.55;34.89;95108.72;5089414;28;20714;-43
2023/08/14 07:59:02;;;;;;;3.58;2.80;;;;;;;31.83;34.72;95108.31;5089737;28;20268;-43
2023/08/14 08:01:28;;;;;;;2.78;2.58;;;;;;;31.75;34.79;95114.06;5089414;28;20193;-44
2023/08/14 08:03:55;;;;;;;3.20;2.90;;;;;;;31.79;34.32;95106.41;5089767;28;20196;-45
2023/08/14 08:06:22;;;;;;;3.95;2.80;;;;;;;31.57;34.71;95114.56;5089632;28;20190;-44
2023/08/14 08:08:49;;;;;;;3.70;2.72;;;;;;;31.53;34.79;95105.56;5089603;28;20262;-44
2023/08/14 08:11:15;;;;;;;3.83;2.67;;;;;;;31.66;34.66;95119.06;5089538;28;20229;-44
2023/08/14 08:13:43;;;;;;;5.18;2.92;;;;;;;31.51;34.55;95113.72;5089032;28;20208;-44
2023/08/14 08:16:11;;;;;;;3.55;3.00;;;;;;;31.51;34.80;95113.72;5089710;28;20197;-44
2023/08/14 08:18:38;;;;;;;3.33;2.90;;;;;;;31.37;34.48;95118.69;5089236;28;20182;-44
2023/08/14 08:21:05;;;;;;;3.78;2.92;;;;;;;31.07;34.76;95116.66;5089561;28;20198;-44
2023/08/14 08:23:31;;;;;;;4.20;3.10;;;;;;;31.14;34.97;95108.53;5089588;28;20197;-44
2023/08/14 08:25:58;;;;;;;3.25;2.75;;;;;;;31.31;35.19;95114.44;5093444;28;20200;-45
2023/08/14 08:28:25;;;;;;;5.93;2.95;;;;;;;31.27;34.65;95112.56;5093221;28;20624;-45
2023/08/14 08:30:52;;;;;;;4.53;3.03;;;;;;;31.08;35.14;95104.25;5093215;28;20710;-43
2023/08/14 08:33:20;;;;;;;4.35;2.67;;;;;;;31.22;35.03;95105.41;5093742;28;20196;-45
2023/08/14 08:35:47;;;;;;;3.83;3.05;;;;;;;31.24;34.19;95098.78;5093667;28;20193;-46
2023/08/14 08:38:14;;;;;;;4.07;3.30;;;;;;;31.11;34.55;95109.81;5093475;28;20192;-44
2023/08/14 08:40:42;;;;;;;5.15;3.45;;;;;;;31.20;35.02;95102.19;5093516;28;20181;-44
2023/08/14 08:43:10;;;;;;;4.80;3.38;;;;;;;31.32;34.61;95099.38;5093467;28;20200;-45
2023/08/14 08:45:40;;;;;;;8.40;3.25;;;;;;;31.22;34.57;95098.25;5093251;28;20193;-44
2023/08/14 08:48:08;;;;;;;4.03;3.33;;;;;;;31.02;34.83;95105.28;5093327;28;20193;-45
2023/08/14 08:50:37;;;;;;;4.25;3.42;;;;;;;30.79;35.62;95094.06;5092847;28;20266;-45
2023/08/14 08:53:05;;;;;;;4.32;2.92;;;;;;;30.69;35.77;95099.22;5093580;28;20185;-43
2023/08/14 08:55:32;;;;;;;5.28;3.05;;;;;;;30.71;35.82;95100.56;5092774;28;20242;-46
2023/08/14 08:58:00;;;;;;;4.05;3.20;;;;;;;30.72;35.40;95104.03;5093360;28;20177;-44
2023/08/14 09:00:27;;;;;;;4.57;2.92;;;;;;;30.88;35.45;95095.16;5092757;28;20186;-43
2023/08/14 09:02:53;;;;;;;2.90;2.70;;;;;;;30.92;34.72;95100.75;5092978;28;20194;-44
2023/08/14 09:05:21;;;;;;;3.70;3.05;;;;;;;30.65;35.12;95098.94;5092708;28;20197;-43
2023/08/14 09:07:49;;;;;;;3.55;3.08;;;;;;;30.65;35.14;95091.00;5093299;28;20182;-44
2023/08/14 09:10:17;;;;;;;4.72;2.97;;;;;;;30.64;35.49;95088.63;5093197;28;20583;-44
2023/08/14 09:12:44;;;;;;;5.38;2.83;;;;;;;30.77;35.31;95090.06;5092540;28;20209;-43
2023/08/14 09:15:11;;;;;;;4.70;3.15;;;;;;;30.62;35.27;95096.81;5092658;28;20243;-45
2023/08/14 09:17:38;;;;;;;3.20;2.90;;;;;;;30.31;35.72;95081.78;5092796;28;20193;-44
2023/08/14 09:20:08;;;;;;;3.22;2.78;;;;;;;30.24;35.90;95089.91;5092751;28;20189;-44
2023/08/14 09:22:38;;;;;;;3.20;2.85;;;;;;;30.10;34.93;95086.88;5092396;28;20656;-43
2023/08/14 09:25:08;;;;;;;3.17;2.80;;;;;;;30.00;35.13;95089.38;5092462;28;20193;-42
2023/08/14 09:27:35;;;;;;;2.60;2.40;;;;;;;29.98;35.40;95080.94;5092866;28;20571;-43
2023/08/14 09:30:02;;;;;;;4.30;2.70;;;;;;;30.06;35.56;95079.72;5092309;28;20236;-44
2023/08/14 09:32:29;;;;;;;3.25;3.03;;;;;;;30.12;35.30;95076.84;5092095;28;20303;-44
2023/08/14 09:34:59;;;;;;;3.13;2.45;;;;;;;30.18;35.40;95059.25;5091836;28;20190;-44
2023/08/14 09:37:27;;;;;;;2.80;2.58;;;;;;;30.41;35.27;95074.75;5092372;28;20196;-44
2023/08/14 09:40:10;;;;;;;3.20;2.90;;;;;;;30.38;34.83;95067.31;5092267;28;20196;-44
2023/08/14 09:42:36;;;;;;;4.35;3.10;;;;;;;30.30;35.15;95056.44;5092486;28;20182;-44
2023/08/14 09:45:03;;;;;;;9.10;3.33;;;;;;;30.31;35.70;95064.13;5092353;28;20579;-43
2023/08/14 09:47:32;;;;;;;3.08;2.78;;;;;;;30.17;35.84;95063.72;5091953;28;20185;-45
2023/08/14 09:49:59;;;;;;;3.20;2.50;;;;;;;30.02;35.38;95060.16;5091763;28;20218;-43
2023/08/14 09:52:26;;;;;;;4.68;2.78;;;;;;;29.96;35.52;95052.16;5091834;28;20571;-43
2023/08/14 09:54:54;;;;;;;3.25;2.72;;;;;;;29.90;35.70;95055.81;5092250;28;20564;-44
2023/08/14 09:57:24;;;;;;;3.13;2.50;;;;;;;29.93;35.74;95050.03;5091990;28;20300;-45
2023/08/14 09:59:51;;;;;;;3.72;2.67;;;;;;;29.86;36.21;95057.34;5091688;28;20191;-43
2023/08/14 10:02:18;;;;;;;8.38;2.70;;;;;;;29.80;36.23;95032.00;5091738;28;20549;-43
2023/08/14 10:04:47;;;;;;;4.18;2.90;;;;;;;29.97;36.03;95040.59;5091969;28;20583;-44
2023/08/14 10:07:14;;;;;;;3.97;2.83;;;;;;;29.80;35.61;95044.38;5091931;28;20239;-45
2023/08/14 10:09:45;;;;;;;3.75;2.78;;;;;;;29.70;35.96;95051.13;5091623;28;20186;-43
2023/08/14 10:12:13;;;;;;;2.85;2.65;;;;;;;29.73;35.82;95048.00;5092100;28;20567;-42
2023/08/14 10:14:46;;;;;;;2.97;2.67;;;;;;;29.77;35.71;95045.66;5091633;28;20213;-44
2023/08/14 10:17:21;;;;;;;6.63;2.78;;;;;;;29.68;35.98;95037.41;5091665;28;20193;-45
2023/08/14 10:19:51;;;;;;;3.97;2.92;;;;;;;29.54;36.73;95043.31;5091510;28;20240;-44
2023/08/14 10:22:19;;;;;;;4.90;2.75;;;;;;;29.46;36.76;95036.63;5091347;28;20548;-43
2023/08/14 10:24:47;;;;;;;4.25;2.67;;;;;;;29.49;37.05;95031.66;5091705;28;20272;-46
2023/08/14 10:27:14;;;;;;;3.80;3.00;;;;;;;29.39;37.08;95034.19;5091403;28;20661;-45
2023/08/14 10:29:43;;;;;;;3.58;3.28;;;;;;;29.35;36.99;95017.25;5091461;28;20665;-46
2023/08/14 10:32:10;;;;;;;7.57;2.95;;;;;;;29.47;37.23;95030.31;5091087;28;20237;-44
2023/08/14 10:34:38;;;;;;;3.33;3.03;;;;;;;29.37;37.40;95019.66;5091481;28;20239;-45
2023/08/14 10:37:05;;;;;;;4.43;3.20;;;;;;;29.50;37.49;95019.28;5091036;28;20658;-44
2023/08/14 10:39:34;;;;;;;3.13;2.88;;;;;;;29.53;37.31;95020.59;5091639;28;20534;-45
2023/08/14 10:42:03;;;;;;;2.97;2.75;;;;;;;29.69;37.29;95025.03;5091332;28;20604;-45
2023/08/14 10:44:35;;;;;;;3.22;2.70;;;;;;;29.60;37.12;95023.88;5091566;28;20207;-44
2023/08/14 10:47:07;;;;;;;3.28;2.80;;;;;;;29.53;37.42;95021.41;5090201;28;20197;-44
2023/08/14 10:49:43;;;;;;;3.38;2.70;;;;;;;29.41;37.38;95013.66;5091404;28;20186;-43
2023/08/14 10:52:14;;;;;;;3.78;3.03;;;;;;;29.37;37.48;95015.19;5090801;28;20217;-42
2023/08/14 10:54:41;;;;;;;4.38;3.00;;;;;;;29.40;37.87;95011.25;5091102;28;20661;-44
2023/08/14 10:57:10;;;;;;;3.60;3.03;;;;;;;29.33;37.33;94987.75;5091055;28;20188;-45
2023/08/14 10:59:39;;;;;;;5.03;3.20;;;;;;;29.30;38.77;95005.88;5090854;28;20239;-45
2023/08/14 11:02:14;;;;;;;3.30;3.00;;;;;;;29.38;38.16;94998.31;5091301;28;20634;-45
2023/08/14 11:04:58;;;;;;;5.63;3.03;;;;;;;29.41;38.46;95013.66;5091062;28;20196;-43
2023/08/14 11:07:28;;;;;;;3.10;2.90;;;;;;;29.35;38.44;95005.94;5090624;28;20225;-44
2023/08/14 11:09:56;;;;;;;3.25;2.95;;;;;;;29.47;38.33;95017.91;5090665;28;20193;-46
2023/08/14 11:12:23;;;;;;;3.13;2.83;;;;;;;29.39;38.49;95017.56;5090455;28;20189;-43
2023/08/14 11:14:50;;;;;;;3.60;2.75;;;;;;;29.40;38.91;95005.97;5090903;28;20212;-44
2023/08/14 11:17:18;;;;;;;3.20;2.92;;;;;;;29.45;38.75;95012.13;5090593;28;20198;-45
2023/08/14 11:19:45;;;;;;;3.20;2.97;;;;;;;29.47;39.26;95012.66;5090256;28;20672;-44
2023/08/14 11:22:11;;;;;;;4.50;2.97;;;;;;;29.52;38.61;95013.75;5090455;28;20202;-45
2023/08/14 11:24:38;;;;;;;4.38;3.08;;;;;;;29.30;38.34;94998.78;5090154;28;20243;-45
2023/08/14 11:27:05;;;;;;;3.33;2.95;;;;;;;29.31;38.97;94987.19;5090335;28;20190;-45
2023/08/14 11:29:32;;;;;;;3.90;3.03;;;;;;;29.47;39.15;94998.69;5090354;28;20235;-42
2023/08/14 11:32:00;;;;;;;14.18;3.30;;;;;;;29.60;38.81;94995.69;5089769;28;20233;-43
2023/08/14 11:34:32;;;;;;;7.53;3.28;;;;;;;29.68;38.56;94987.31;5090083;28;20273;-44
2023/08/14 11:37:01;;;;;;;3.13;2.83;;;;;;;29.74;38.74;94996.06;5089865;28;20236;-43